Weather History for Sedona, AZ

Change the Weather History Date:

Monday, January 14, 2013

  Actual Average Record
Temperature  
Mean Temperature 29 °F -  
Max Temperature 37 °F 57 °F 66 °F (2014)
Min Temperature 21 °F 31 °F 21 °F (2013)
Degree Days  
Heating Degree Days 36    
Moisture  
Dew Point 4 °F    
Average Humidity 39    
Maximum Humidity 58    
Minimum Humidity 26    
Precipitation  
Precipitation 0.00 in - - ()
Sea Level Pressure  
Sea Level Pressure 30.03 in    
Wind  
Wind Speed 10 mph (ENE)    
Max Wind Speed 18 mph    
Max Gust Speed 26 mph    
Visibility 10 miles    
Events      
Averages and records for this station are not official NWS values.
T = Trace of Precipitation, MM = Missing Value Source: NWS Daily Summary

Daily Weather History Graph

Daily Weather History Graph

Search for Another Location

Airport:

Trip Planner

Search our weather history database for the weather conditions in past years. The results will help you decide how hot, cold, wet, or windy it might be!

Date:

Astronomy

Jan. 14, 2013 Rise Set
Actual Time 7:34 AM MST 5:38 PM MST
Civil Twilight 7:07 AM MST 6:06 PM MST
Nautical Twilight 6:35 AM MST 6:37 PM MST
Astronomical Twilight 6:05 AM MST 7:07 PM MST
Moon 9:19 AM MST (1/14) 9:17 PM MST (1/14)
Length of Visible Light 10h 59m
Length of Day
10h 04m
Waxing Crescent, 12% of the Moon is Illuminated
Jan 14
Waxing Crescent
Jan 18
First Quarter
Jan 26
Full
Feb 3
Last Quarter
Feb 10
New

Hourly Weather History & Observations

Time (MST) Temp. Windchill Dew Point Humidity Pressure Visibility Wind Dir Wind Speed Gust Speed Precip Events Conditions
12:15 AM 26.6 °F - 3.2 °F 37% 29.93 in 10.0 mi Calm Calm - N/A   Clear
12:35 AM 24.8 °F 16.1 °F 3.2 °F 40% 29.93 in 10.0 mi NE 8.1 mph - N/A   Clear
12:55 AM 23.0 °F 13.1 °F 3.2 °F 43% 29.92 in 10.0 mi NE 9.2 mph - N/A   Clear
1:55 AM 23.0 °F 11.7 °F 3.2 °F 43% 29.94 in 10.0 mi NE 11.5 mph - N/A   Clear
2:15 AM 23.0 °F 11.1 °F 5.0 °F 46% 29.95 in 10.0 mi ENE 12.7 mph - N/A   Scattered Clouds
2:35 AM 23.0 °F 10.1 °F 5.0 °F 46% 29.95 in 10.0 mi ENE 15.0 mph 19.6 mph N/A   Overcast
2:55 AM 23.0 °F 11.1 °F 5.0 °F 46% 29.95 in 10.0 mi ENE 12.7 mph 18.4 mph N/A   Overcast
3:15 AM 23.0 °F 10.1 °F 5.0 °F 46% 29.95 in 10.0 mi ENE 15.0 mph - N/A   Overcast
3:35 AM 23.0 °F 10.1 °F 6.8 °F 50% 29.94 in 10.0 mi NE 15.0 mph 21.9 mph N/A   Scattered Clouds
3:55 AM 23.0 °F 10.6 °F 6.8 °F 50% 29.94 in 10.0 mi NE 13.8 mph 20.7 mph N/A   Scattered Clouds
4:35 AM 23.0 °F 11.1 °F 8.6 °F 54% 29.94 in 10.0 mi NE 12.7 mph - N/A   Scattered Clouds
4:55 AM 23.0 °F 10.1 °F 8.6 °F 54% 29.94 in 10.0 mi NE 15.0 mph 18.4 mph N/A   Scattered Clouds
5:15 AM 23.0 °F 10.6 °F 8.6 °F 54% 29.95 in 10.0 mi NE 13.8 mph 19.6 mph N/A   Clear
5:35 AM 23.0 °F 10.1 °F 8.6 °F 54% 29.95 in 10.0 mi NE 15.0 mph 21.9 mph N/A   Clear
5:55 AM 21.2 °F 8.3 °F 8.6 °F 58% 29.95 in 10.0 mi NE 13.8 mph 20.7 mph N/A   Clear
6:15 AM 21.2 °F 7.8 °F 8.6 °F 58% 29.95 in 10.0 mi NE 15.0 mph 23.0 mph N/A   Clear
6:35 AM 21.2 °F 7.8 °F 8.6 °F 58% 29.96 in 10.0 mi NE 15.0 mph 21.9 mph N/A   Clear
6:55 AM 21.2 °F 7.8 °F 8.6 °F 58% 29.97 in 10.0 mi NE 15.0 mph 23.0 mph N/A   Clear
7:15 AM 21.2 °F 7.3 °F 8.6 °F 58% 29.97 in 10.0 mi NE 16.1 mph 20.7 mph N/A   Clear
7:35 AM 21.2 °F 6.8 °F 8.6 °F 58% 29.98 in 10.0 mi ENE 17.3 mph 21.9 mph N/A   Clear
7:55 AM 21.2 °F 7.3 °F 8.6 °F 58% 29.99 in 10.0 mi NE 16.1 mph 21.9 mph N/A   Scattered Clouds
8:15 AM 23.0 °F 8.7 °F 8.6 °F 54% 30.00 in 10.0 mi NE 18.4 mph 26.5 mph N/A   Mostly Cloudy
8:35 AM 23.0 °F 11.1 °F 8.6 °F 54% 30.00 in 10.0 mi NE 12.7 mph 24.2 mph N/A   Scattered Clouds
8:55 AM 26.6 °F 16.8 °F 8.6 °F 47% 30.01 in 10.0 mi ENE 10.4 mph 20.7 mph N/A   Clear
9:15 AM 26.6 °F 16.2 °F 8.6 °F 47% 30.01 in 10.0 mi ENE 11.5 mph 17.3 mph N/A   Clear
9:35 AM 28.4 °F 18.5 °F 8.6 °F 43% 30.01 in 10.0 mi ENE 11.5 mph 16.1 mph N/A   Clear
9:55 AM 30.2 °F 20.2 °F 8.6 °F 40% 30.02 in 10.0 mi East 12.7 mph 19.6 mph N/A   Clear
10:15 AM 30.2 °F 21.9 °F 8.6 °F 40% 30.02 in 10.0 mi East 9.2 mph 23.0 mph N/A   Clear
10:35 AM 32.0 °F 24.8 °F 8.6 °F 38% 30.03 in 10.0 mi East 8.1 mph 18.4 mph N/A   Clear
10:55 AM 32.0 °F 21.6 °F 8.6 °F 38% 30.03 in 10.0 mi East 15.0 mph 18.4 mph N/A   Clear
11:15 AM 32.0 °F 24.2 °F 6.8 °F 35% 30.02 in 10.0 mi East 9.2 mph 18.4 mph N/A   Clear
11:35 AM 32.0 °F 25.6 °F 6.8 °F 35% 30.02 in 10.0 mi East 6.9 mph - N/A   Clear
11:55 AM 33.8 °F 28.6 °F 6.8 °F 32% 30.01 in 10.0 mi East 5.8 mph - N/A   Clear
12:15 PM 32.0 °F 27.5 °F 5.0 °F 32% 30.00 in 10.0 mi NNE 4.6 mph - N/A   Clear
12:35 PM 32.0 °F 25.6 °F 5.0 °F 32% 30.00 in 10.0 mi East 6.9 mph - N/A   Clear
12:55 PM 37.4 °F 30.3 °F 8.6 °F 30% 29.99 in 10.0 mi SE 10.4 mph 17.3 mph N/A   Scattered Clouds
1:15 PM 37.4 °F 30.3 °F 5.0 °F 26% 29.99 in 10.0 mi SSE 10.4 mph 16.1 mph N/A   Scattered Clouds
1:35 PM 32.0 °F 25.6 °F 5.0 °F 32% 29.99 in 10.0 mi ESE 6.9 mph - N/A   Mostly Cloudy
1:55 PM 32.0 °F 28.7 °F 5.0 °F 32% 30.00 in 10.0 mi East 3.5 mph - N/A   Overcast
2:35 PM 33.8 °F 27.0 °F 5.0 °F 30% 30.00 in 10.0 mi ENE 8.1 mph - N/A   Overcast
2:55 PM 32.0 °F 24.2 °F 5.0 °F 32% 30.02 in 10.0 mi East 9.2 mph - N/A   Overcast
3:35 PM 32.0 °F - 3.2 °F 30% 30.02 in 10.0 mi Calm Calm - N/A   Overcast
3:55 PM 32.0 °F 26.4 °F 3.2 °F 30% 30.04 in 10.0 mi NE 5.8 mph - N/A   Overcast
4:15 PM 32.0 °F 24.8 °F 3.2 °F 30% 30.04 in 10.0 mi ENE 8.1 mph - N/A   Overcast
4:35 PM 32.0 °F 24.8 °F 3.2 °F 30% 30.05 in 10.0 mi East 8.1 mph - N/A   Mostly Cloudy
4:55 PM 32.0 °F 23.6 °F 3.2 °F 30% 30.06 in 10.0 mi East 10.4 mph - N/A   Mostly Cloudy
5:15 PM 30.2 °F 22.6 °F 3.2 °F 32% 30.08 in 10.0 mi ENE 8.1 mph - N/A   Overcast
5:35 PM 30.2 °F 21.3 °F 1.4 °F 29% 30.08 in 10.0 mi ENE 10.4 mph - N/A   Mostly Cloudy
5:55 PM 28.4 °F 19.1 °F 1.4 °F 31% 30.09 in 10.0 mi ENE 10.4 mph 17.3 mph N/A   Scattered Clouds
6:15 PM 28.4 °F 20.4 °F 1.4 °F 31% 30.10 in 10.0 mi East 8.1 mph 17.3 mph N/A   Clear
6:35 PM 28.4 °F 19.7 °F -0.4 °F 29% 30.11 in 10.0 mi ENE 9.2 mph - N/A   Clear
6:55 PM 26.6 °F 16.2 °F -0.4 °F 31% 30.12 in 10.0 mi ENE 11.5 mph 17.3 mph N/A   Clear
7:15 PM 26.6 °F 15.7 °F -0.4 °F 31% 30.12 in 10.0 mi NE 12.7 mph 18.4 mph N/A   Clear
7:35 PM 26.6 °F 15.2 °F -0.4 °F 31% 30.13 in 10.0 mi ENE 13.8 mph 17.3 mph N/A   Clear
7:55 PM 24.8 °F 12.4 °F -2.2 °F 31% 30.13 in 10.0 mi ENE 15.0 mph 24.2 mph N/A   Clear
8:15 PM 24.8 °F 14.6 °F -4.0 °F 28% 30.13 in 10.0 mi ENE 10.4 mph 18.4 mph N/A   Clear
8:35 PM 23.0 °F 11.7 °F -4.0 °F 31% 30.14 in 10.0 mi ENE 11.5 mph 18.4 mph N/A   Clear
8:55 PM 23.0 °F 9.6 °F -4.0 °F 31% 30.15 in 10.0 mi ENE 16.1 mph 23.0 mph N/A   Clear
9:15 PM 23.0 °F 10.1 °F -4.0 °F 31% 30.15 in 10.0 mi NE 15.0 mph 23.0 mph N/A   Clear
9:35 PM 23.0 °F 10.1 °F -4.0 °F 31% 30.15 in 10.0 mi NE 15.0 mph 23.0 mph N/A   Clear
9:55 PM 21.2 °F 9.5 °F -5.8 °F 30% 30.15 in 10.0 mi NE 11.5 mph 16.1 mph N/A   Clear
10:15 PM 23.0 °F 12.4 °F -5.8 °F 28% 30.15 in 10.0 mi ENE 10.4 mph - N/A   Clear
10:35 PM 23.0 °F 14.7 °F -5.8 °F 28% 30.15 in 10.0 mi East 6.9 mph - N/A   Clear
10:55 PM 23.0 °F 13.1 °F -5.8 °F 28% 30.15 in 10.0 mi ENE 9.2 mph - N/A   Clear
11:15 PM 21.2 °F 16.4 °F -5.8 °F 30% 30.16 in 10.0 mi NW 3.5 mph - N/A   Clear
11:35 PM 23.0 °F 18.4 °F -5.8 °F 28% 30.16 in 10.0 mi WNW 3.5 mph - N/A   Clear
11:55 PM 23.0 °F - -7.6 °F 26% 30.16 in 10.0 mi Calm Calm - N/A   Clear